Weather - Helsinki Query any day in the database

Current weather  

Weather data for a selected day (2006-01-01 -2020-10-30)
Enter date:     <-     scroll days         ->
day curves
Low temperature°C +1.005:50
High temperature°C +11.016:50
Low wind chill°C -5.704:50
Average temperature°C +5.6 
High wind speed (10 min) m/s 15.016:20
Low pressurehPa 994.011:20
High pressurehPa 1007.000:20
Low R.H% 3017:50
High R.H% 10009:20
Day weather data as a table
Date Time Temp
°C
Chill
°C
Pressure
hPA
Wind
m/s
Hum
%
Precip
mm
2007-04-11 23:50:00 6.0  1.2  1004.0 9.0 49 -
2007-04-11 23:20:00 6.0  1.2  1004.0 9.0 49 -
2007-04-11 22:50:00 6.0  1.2  1003.0 9.0 49 -
2007-04-11 22:20:00 7.0  2.5  1003.0 9.0 46 -
2007-04-11 21:50:00 7.0  2.5  1003.0 9.0 46 -
2007-04-11 21:20:00 8.0  3.8  1002.0 9.0 43 -
2007-04-11 20:50:00 8.0  3.3  1002.0 11.0 40 -
2007-04-11 20:20:00 8.0  3.3  1001.0 11.0 40 -
2007-04-11 19:50:00 9.0  4.7  1001.0 11.0 37 -
2007-04-11 19:20:00 10.0  6.2  1000.0 10.0 35 -
2007-04-11 18:50:00 10.0  6.0  1000.0 11.0 32 -
2007-04-11 18:20:00 10.0  5.6  999.0 13.0 32 -
2007-04-11 17:50:00 10.0  5.6  999.0 13.0 30 -
2007-04-11 17:20:00 10.0  5.8  999.0 12.0 32 -
2007-04-11 16:50:00 11.0  6.8  998.0 14.0 32 -
2007-04-11 16:20:00 11.0  6.7  997.0 15.0 32 -
2007-04-11 15:50:00 11.0  7.0  997.0 13.0 32 -
2007-04-11 15:20:00 10.0  5.6  997.0 13.0 35 -
2007-04-11 14:50:00 9.0  4.3  997.0 13.0 34 -
2007-04-11 14:20:00 10.0  6.0  996.0 11.0 35 -
2007-04-11 13:50:00 9.0  4.7  996.0 11.0 34 -
2007-04-11 12:50:00 8.0  3.3  995.0 11.0 43 -
2007-04-11 12:20:00 9.0  4.9  995.0 10.0 50 -
2007-04-11 11:50:00 7.0  2.5  995.0 9.0 71 -
2007-04-11 11:20:00 7.0  2.8  994.0 8.0 76 -
2007-04-11 10:50:00 6.0  2.6  994.0 5.0 81 -
2007-04-11 10:20:00 4.0  0.6  994.0 4.0 93 -
2007-04-11 09:50:00 4.0  0.1  994.0 5.0 87 -
2007-04-11 09:20:00 3.0  -2.1  994.0 7.0 100 -
2007-04-11 08:50:00 3.0  -2.4  995.0 8.0 93 -
2007-04-11 08:20:00 3.0  -2.8  995.0 9.0 93 -
2007-04-11 07:50:00 3.0  -2.4  996.0 8.0 93 -
2007-04-11 07:20:00 2.0  -3.7  996.0 8.0 93 -
2007-04-11 06:50:00 2.0  -4.4  997.0 10.0 93 -
2007-04-11 06:20:00 2.0  -4.1  998.0 9.0 87 -
2007-04-11 05:50:00 1.0  -5.4  998.0 9.0 93 -
2007-04-11 05:20:00 1.0  -5.4  1000.0 9.0 93 -
2007-04-11 04:50:00 1.0  -5.7  1000.0 10.0 93 -
2007-04-11 04:20:00 1.0  -5.4  1001.0 9.0 93 -
2007-04-11 03:50:00 1.0  -5.0  1002.0 8.0 87 -
2007-04-11 03:20:00 1.0  -5.4  1003.0 9.0 87 -
2007-04-11 02:50:00 1.0  -5.4  1004.0 9.0 87 -
2007-04-11 02:20:00 1.0  -5.0  1004.0 8.0 87 -
2007-04-11 01:50:00 1.0  -5.0  1004.0 8.0 87 -
2007-04-11 01:20:00 2.0  -4.1  1005.0 9.0 75 -
2007-04-11 00:50:00 2.0  -3.7  1006.0 8.0 75 -
2007-04-11 00:20:00 2.0  -3.4  1007.0 7.0 75 -
Unit conversions: